createdAt,value
2018-06-09T00:02:22.363Z,16.84
2018-06-09T00:04:51.026Z,16.87
2018-06-09T00:07:19.732Z,16.79
2018-06-09T00:09:48.388Z,16.67
2018-06-09T00:12:17.003Z,16.75
2018-06-09T00:14:45.608Z,16.81
2018-06-09T00:17:14.480Z,16.81
2018-06-09T00:19:43.403Z,16.74
2018-06-09T00:22:12.280Z,16.69
2018-06-09T00:24:41.168Z,16.76
2018-06-09T00:27:10.111Z,16.68
2018-06-09T00:29:38.723Z,16.98
2018-06-09T00:32:07.638Z,17.10
2018-06-09T00:34:36.535Z,17.20
2018-06-09T00:37:05.151Z,17.21
2018-06-09T00:39:33.738Z,17.37
2018-06-09T00:42:02.352Z,17.34
2018-06-09T00:44:30.990Z,17.25
2018-06-09T00:46:59.895Z,17.10
2018-06-09T00:49:28.519Z,16.96
2018-06-09T00:51:57.403Z,16.86
2018-06-09T00:54:26.385Z,16.70
2018-06-09T00:56:55.223Z,16.78
2018-06-09T00:59:24.052Z,16.73
2018-06-09T01:01:52.915Z,16.68
2018-06-09T01:04:21.799Z,16.69
2018-06-09T01:06:50.778Z,16.71
2018-06-09T01:09:19.378Z,16.79
2018-06-09T01:11:48.019Z,16.77
2018-06-09T01:14:16.703Z,16.99
2018-06-09T01:16:45.563Z,17.25
2018-06-09T01:19:14.155Z,17.47
2018-06-09T01:21:43.699Z,17.37
2018-06-09T01:24:12.643Z,17.32
2018-06-09T01:26:41.303Z,17.24
2018-06-09T01:29:10.248Z,17.21
2018-06-09T01:31:39.115Z,17.17
2018-06-09T01:34:07.999Z,17.18
2018-06-09T01:36:36.657Z,17.32
2018-06-09T01:39:08.430Z,17.19
2018-06-09T01:41:37.842Z,17.10
2018-06-09T01:44:06.764Z,17.03
2018-06-09T01:46:35.667Z,17.02
2018-06-09T01:49:05.169Z,16.95
2018-06-09T01:51:33.769Z,16.97
2018-06-09T01:54:02.399Z,17.00
2018-06-09T01:56:31.043Z,16.99
2018-06-09T01:58:59.681Z,16.97
2018-06-09T02:01:28.394Z,16.99
2018-06-09T02:03:57.010Z,17.11
2018-06-09T02:06:25.641Z,17.12
2018-06-09T02:08:54.293Z,17.26
2018-06-09T02:11:22.918Z,17.56
2018-06-09T02:13:51.816Z,17.44
2018-06-09T02:16:20.733Z,17.60
2018-06-09T02:18:49.659Z,17.63
2018-06-09T02:21:18.562Z,17.69
2018-06-09T02:23:47.431Z,17.81
2018-06-09T02:26:16.359Z,17.83
2018-06-09T02:28:45.204Z,17.88
2018-06-09T02:31:13.665Z,17.86
2018-06-09T02:33:42.302Z,17.83
2018-06-09T02:36:10.952Z,17.89
2018-06-09T02:38:39.392Z,17.93
2018-06-09T02:41:08.274Z,17.91
2018-06-09T02:43:37.199Z,17.83
2018-06-09T02:46:06.146Z,17.81
2018-06-09T02:48:35.067Z,17.84
2018-06-09T02:51:05.247Z,18.17
2018-06-09T02:53:33.868Z,18.42
2018-06-09T02:56:02.510Z,18.28
2018-06-09T02:58:31.115Z,18.14
2018-06-09T03:00:59.902Z,18.22
2018-06-09T03:03:28.808Z,18.43
2018-06-09T03:05:57.748Z,18.35
2018-06-09T03:08:26.685Z,18.25
2018-06-09T03:10:55.636Z,18.10
2018-06-09T03:13:24.259Z,17.96
2018-06-09T03:15:53.252Z,17.87
2018-06-09T03:18:22.108Z,17.74
2018-06-09T03:20:51.012Z,17.60
2018-06-09T03:23:19.895Z,17.55
2018-06-09T03:25:48.749Z,17.52
2018-06-09T03:28:17.604Z,17.43
2018-06-09T03:30:46.384Z,17.38
2018-06-09T03:33:14.987Z,17.32
2018-06-09T03:35:43.595Z,17.43
2018-06-09T03:38:12.247Z,17.35
2018-06-09T03:40:40.828Z,17.25
2018-06-09T03:43:09.462Z,17.14
2018-06-09T03:45:38.077Z,17.17
2018-06-09T03:48:06.662Z,17.44
2018-06-09T03:50:35.346Z,17.32
2018-06-09T03:53:05.230Z,17.29
2018-06-09T03:55:33.847Z,17.30
2018-06-09T03:58:02.810Z,17.26
2018-06-09T04:00:31.448Z,17.25
2018-06-09T04:03:00.343Z,17.28
2018-06-09T04:05:29.235Z,17.25
2018-06-09T04:07:58.120Z,17.20
2018-06-09T04:10:27.011Z,17.25
2018-06-09T04:12:55.869Z,17.33
2018-06-09T04:15:24.625Z,17.24
2018-06-09T04:17:53.240Z,17.21
2018-06-09T04:20:21.875Z,17.22
2018-06-09T04:22:50.483Z,17.35
2018-06-09T04:25:19.387Z,17.50
2018-06-09T04:27:48.298Z,17.59
2018-06-09T04:30:17.219Z,17.55
2018-06-09T04:32:46.115Z,17.67
2018-06-09T04:35:15.014Z,17.57
2018-06-09T04:37:43.970Z,17.73
2018-06-09T04:40:12.911Z,17.76
2018-06-09T04:42:41.923Z,17.75
2018-06-09T04:45:10.902Z,17.78
2018-06-09T04:47:39.866Z,17.72
2018-06-09T04:50:08.958Z,17.63
2018-06-09T04:52:37.951Z,17.59
2018-06-09T04:55:06.643Z,17.55
2018-06-09T04:57:35.275Z,17.58
2018-06-09T05:00:04.023Z,17.56
2018-06-09T05:02:32.776Z,17.57
2018-06-09T05:05:01.459Z,17.64
2018-06-09T05:07:30.367Z,17.57
2018-06-09T05:09:59.303Z,17.56
2018-06-09T05:12:28.190Z,17.59
2018-06-09T05:14:57.203Z,17.59
2018-06-09T05:17:26.120Z,17.58
2018-06-09T05:19:55.031Z,17.73
2018-06-09T05:22:23.926Z,18.27
2018-06-09T05:24:52.783Z,18.63
2018-06-09T05:27:21.703Z,18.77
2018-06-09T05:29:50.611Z,19.05
2018-06-09T05:32:19.523Z,19.60
2018-06-09T05:34:48.296Z,19.65
2018-06-09T05:37:16.959Z,19.50
2018-06-09T05:39:45.623Z,19.42
2018-06-09T05:42:14.253Z,19.72
2018-06-09T05:44:42.864Z,19.91
2018-06-09T05:47:11.513Z,19.99
2018-06-09T05:49:40.139Z,19.65
2018-06-09T05:52:08.756Z,19.29
2018-06-09T05:54:38.369Z,19.18
2018-06-09T05:57:07.357Z,19.04
2018-06-09T05:59:36.093Z,19.01
2018-06-09T06:02:04.802Z,19.05
2018-06-09T06:04:33.462Z,19.13
2018-06-09T06:07:03.123Z,19.48
2018-06-09T06:09:32.443Z,19.51
2018-06-09T06:12:01.284Z,19.65
2018-06-09T06:14:30.140Z,20.06
2018-06-09T06:17:02.735Z,20.22
2018-06-09T06:19:32.456Z,20.66
2018-06-09T06:22:01.063Z,21.14
2018-06-09T06:24:29.776Z,21.78
2018-06-09T06:26:58.176Z,21.84
2018-06-09T06:29:26.784Z,21.85
2018-06-09T06:31:55.439Z,21.69
2018-06-09T06:34:24.009Z,21.82
2018-06-09T06:36:52.564Z,21.97
2018-06-09T06:39:21.243Z,21.94
2018-06-09T06:41:49.843Z,22.39
2018-06-09T06:44:18.431Z,22.79
2018-06-09T06:46:46.983Z,23.16
2018-06-09T06:49:15.709Z,23.82
2018-06-09T06:51:44.529Z,23.78
2018-06-09T06:54:13.491Z,23.73
2018-06-09T06:56:43.159Z,23.70
2018-06-09T06:59:11.923Z,23.97
2018-06-09T07:01:40.776Z,23.93
2018-06-09T07:04:09.638Z,23.59
2018-06-09T07:06:38.476Z,23.78
2018-06-09T07:09:08.231Z,23.93
2018-06-09T07:11:37.016Z,23.91
2018-06-09T07:14:05.565Z,24.23
2018-06-09T07:16:34.103Z,24.80
2018-06-09T07:19:02.696Z,24.99
2018-06-09T07:21:31.238Z,25.39
2018-06-09T07:23:59.771Z,25.67
2018-06-09T07:26:28.316Z,25.83
2018-06-09T07:28:56.978Z,25.25
2018-06-09T07:31:25.572Z,25.36
2018-06-09T07:33:54.120Z,25.66
2018-06-09T07:36:22.704Z,25.51
2018-06-09T07:38:51.264Z,25.25
2018-06-09T07:41:20.077Z,25.33
2018-06-09T07:43:48.914Z,25.73
2018-06-09T07:46:17.816Z,25.94
2018-06-09T07:48:46.444Z,26.19
2018-06-09T07:51:15.310Z,26.46
2018-06-09T07:53:44.244Z,26.52
2018-06-09T07:56:13.171Z,26.32
2018-06-09T07:58:41.959Z,27.04
2018-06-09T08:01:10.569Z,27.54
2018-06-09T08:03:39.286Z,27.60
2018-06-09T08:06:08.081Z,28.07
2018-06-09T08:08:36.761Z,27.85
2018-06-09T08:11:05.521Z,27.77
2018-06-09T08:13:34.118Z,27.57
2018-06-09T08:16:02.874Z,27.55
2018-06-09T08:18:31.643Z,28.34
2018-06-09T08:21:00.583Z,28.90
2018-06-09T08:23:29.523Z,28.28
2018-06-09T08:25:58.496Z,28.07
2018-06-09T08:28:27.238Z,28.17
2018-06-09T08:30:55.851Z,28.36
2018-06-09T08:33:24.489Z,27.94
2018-06-09T08:35:53.080Z,28.23
2018-06-09T08:38:21.670Z,27.82
2018-06-09T08:40:50.324Z,28.61
2018-06-09T08:43:19.022Z,28.26
2018-06-09T08:45:47.751Z,27.76
2018-06-09T08:48:16.476Z,27.55
2018-06-09T08:50:45.423Z,27.55
2018-06-09T08:53:14.379Z,27.70
2018-06-09T08:55:43.334Z,27.60
2018-06-09T08:58:12.453Z,27.38
2018-06-09T09:00:41.329Z,27.48
2018-06-09T09:03:10.234Z,27.47
2018-06-09T09:05:39.172Z,27.64
2018-06-09T09:08:08.087Z,27.45
2018-06-09T09:10:36.975Z,27.10
2018-06-09T09:13:05.629Z,26.68
2018-06-09T09:15:34.307Z,26.35
2018-06-09T09:18:02.908Z,26.06
2018-06-09T09:20:31.705Z,26.19
2018-06-09T09:23:00.573Z,27.32
2018-06-09T09:25:29.497Z,27.63
2018-06-09T09:27:58.369Z,27.76
2018-06-09T09:30:27.107Z,27.68
2018-06-09T09:32:55.776Z,27.47
2018-06-09T09:35:24.383Z,27.27
2018-06-09T09:37:52.971Z,27.19
2018-06-09T09:40:21.639Z,27.43
2018-06-09T09:42:50.223Z,27.58
2018-06-09T09:45:18.856Z,27.60
2018-06-09T09:47:47.454Z,27.58
2018-06-09T09:50:16.213Z,27.39
2018-06-09T09:52:45.099Z,27.49
2018-06-09T09:55:14.012Z,27.46
2018-06-09T09:58:09.216Z,27.84
2018-06-09T10:00:38.861Z,28.41
2018-06-09T10:03:08.571Z,28.54
2018-06-09T10:05:37.206Z,28.62
2018-06-09T10:08:05.954Z,28.40
2018-06-09T10:10:34.673Z,28.21
2018-06-09T10:13:03.837Z,28.32
2018-06-09T10:15:32.536Z,28.04
2018-06-09T10:18:01.269Z,28.02
2018-06-09T10:20:30.103Z,28.20
2018-06-09T10:22:58.831Z,28.09
2018-06-09T10:25:27.706Z,28.74
2018-06-09T10:27:56.690Z,28.99
2018-06-09T10:30:25.551Z,29.23
2018-06-09T10:32:54.163Z,29.27
2018-06-09T10:35:22.716Z,28.94
2018-06-09T10:37:51.348Z,28.70
2018-06-09T10:40:19.979Z,28.54
2018-06-09T10:42:48.706Z,28.39
2018-06-09T10:45:17.336Z,28.06
2018-06-09T10:47:45.895Z,28.03
2018-06-09T10:50:14.564Z,27.93
2018-06-09T10:52:43.138Z,27.99
2018-06-09T10:55:12.004Z,27.86
2018-06-09T10:57:40.889Z,27.95
2018-06-09T11:00:09.784Z,27.86
2018-06-09T11:02:38.791Z,28.02
2018-06-09T11:05:07.921Z,28.03
2018-06-09T11:07:36.979Z,28.11
2018-06-09T11:10:05.899Z,28.36
2018-06-09T11:12:34.801Z,29.57
2018-06-09T11:15:03.728Z,30.67
2018-06-09T11:17:32.583Z,31.36
2018-06-09T11:20:01.440Z,31.90
2018-06-09T11:22:30.410Z,31.26
2018-06-09T11:24:59.227Z,30.38
2018-06-09T11:27:28.488Z,30.23
2018-06-09T11:29:57.384Z,29.95
2018-06-09T11:32:26.253Z,30.34
2018-06-09T11:34:54.919Z,30.59
2018-06-09T11:37:23.544Z,31.58
2018-06-09T11:39:52.151Z,31.47
2018-06-09T11:42:20.866Z,31.45
2018-06-09T11:44:49.505Z,31.11
2018-06-09T11:47:18.127Z,31.24
2018-06-09T11:49:46.929Z,30.69
2018-06-09T11:52:15.561Z,30.30
2018-06-09T11:54:44.119Z,30.13
2018-06-09T11:57:12.776Z,29.79
2018-06-09T11:59:41.409Z,29.49
2018-06-09T12:02:10.914Z,29.46
2018-06-09T12:04:43.085Z,29.55
2018-06-09T12:07:12.178Z,29.30
2018-06-09T12:09:41.166Z,29.47
2018-06-09T12:12:10.057Z,29.49
2018-06-09T12:14:39.478Z,29.35
2018-06-09T12:17:08.219Z,29.52
2018-06-09T12:19:37.835Z,29.30
2018-06-09T12:22:06.716Z,28.85
2018-06-09T12:24:35.564Z,29.07
2018-06-09T12:27:05.184Z,29.20
2018-06-09T12:29:34.699Z,29.17
2018-06-09T12:32:04.191Z,29.10
2018-06-09T12:34:33.104Z,28.86
2018-06-09T12:37:01.836Z,28.63
2018-06-09T12:39:30.509Z,28.85
2018-06-09T12:41:59.324Z,29.44
2018-06-09T12:44:28.093Z,29.92
2018-06-09T12:46:56.797Z,30.17
2018-06-09T12:49:25.555Z,30.45
2018-06-09T12:51:54.446Z,30.56
2018-06-09T12:54:23.130Z,31.81
2018-06-09T12:56:52.593Z,31.63
2018-06-09T12:59:21.218Z,32.05
2018-06-09T13:01:49.951Z,31.60
2018-06-09T13:04:18.631Z,31.46
2018-06-09T13:06:48.141Z,30.48
2018-06-09T13:09:16.802Z,30.18
2018-06-09T13:11:45.639Z,30.34
2018-06-09T13:14:17.516Z,31.47
2018-06-09T13:16:46.236Z,31.70
2018-06-09T13:19:15.246Z,31.07
2018-06-09T13:21:44.231Z,30.46
2018-06-09T13:24:13.144Z,29.71
2018-06-09T13:26:42.135Z,29.59
2018-06-09T13:29:10.819Z,29.27
2018-06-09T13:31:39.762Z,29.28
2018-06-09T13:34:08.376Z,30.44
2018-06-09T13:36:37.875Z,31.85
2018-06-09T13:39:07.830Z,32.44
2018-06-09T13:41:36.599Z,32.62
2018-06-09T13:44:05.343Z,33.08
2018-06-09T13:46:34.211Z,32.89
2018-06-09T13:49:03.103Z,33.00
2018-06-09T13:51:32.044Z,32.64
2018-06-09T13:54:00.998Z,32.24
2018-06-09T13:56:29.648Z,31.27
2018-06-09T13:58:58.251Z,30.43
2018-06-09T14:01:26.898Z,29.90
2018-06-09T14:03:55.526Z,29.34
2018-06-09T14:06:24.750Z,29.18
2018-06-09T14:08:53.701Z,29.86
2018-06-09T14:11:22.323Z,30.84
2018-06-09T14:13:50.985Z,32.27
2018-06-09T14:16:19.636Z,32.48
2018-06-09T14:18:48.278Z,31.98
2018-06-09T14:21:16.883Z,31.91
2018-06-09T14:23:45.553Z,31.69
2018-06-09T14:26:14.370Z,31.82
2018-06-09T14:28:43.263Z,32.27
2018-06-09T14:31:12.206Z,32.92
2018-06-09T14:33:41.125Z,33.43
2018-06-09T14:36:09.883Z,33.78
2018-06-09T14:38:38.343Z,33.92
2018-06-09T14:41:06.966Z,33.42
2018-06-09T14:43:35.559Z,33.38
2018-06-09T14:46:04.198Z,33.35
2018-06-09T14:48:33.098Z,32.15
2018-06-09T14:51:02.024Z,32.55
2018-06-09T14:53:30.958Z,32.67
2018-06-09T14:55:59.638Z,33.30
2018-06-09T14:58:28.226Z,32.78
2018-06-09T15:00:56.896Z,33.06
2018-06-09T15:03:25.543Z,33.61
2018-06-09T15:05:54.160Z,32.60
2018-06-09T15:08:22.761Z,32.61
2018-06-09T15:10:51.368Z,32.63
2018-06-09T15:13:19.990Z,32.42
2018-06-09T15:15:48.678Z,32.68
2018-06-09T15:18:17.309Z,32.85
2018-06-09T15:20:45.946Z,32.73
2018-06-09T15:23:14.559Z,32.86
2018-06-09T15:25:43.258Z,32.75
2018-06-09T15:28:16.228Z,32.68
2018-06-09T15:30:47.670Z,32.12
2018-06-09T15:33:16.331Z,32.43
2018-06-09T15:35:46.006Z,32.60
2018-06-09T15:38:14.916Z,32.56
2018-06-09T15:40:43.896Z,32.66
2018-06-09T15:43:13.188Z,33.23
2018-06-09T15:45:41.961Z,33.28
2018-06-09T15:48:10.620Z,33.47
2018-06-09T15:50:39.210Z,33.28
2018-06-09T15:53:07.883Z,32.97
2018-06-09T15:55:36.599Z,32.49
2018-06-09T15:58:05.639Z,32.57
2018-06-09T16:00:35.118Z,31.54
2018-06-09T16:03:04.175Z,31.02
2018-06-09T16:05:33.559Z,30.59
2018-06-09T16:08:02.475Z,31.06
2018-06-09T16:10:31.459Z,31.34
2018-06-09T16:13:01.332Z,31.13
2018-06-09T16:15:30.264Z,30.85
2018-06-09T16:17:59.211Z,31.33
2018-06-09T16:20:28.634Z,31.48
2018-06-09T16:22:57.704Z,31.33
2018-06-09T16:25:27.575Z,31.16
2018-06-09T16:27:56.484Z,31.47
2018-06-09T16:30:25.364Z,31.48
2018-06-09T16:32:54.268Z,31.31
2018-06-09T16:35:23.150Z,30.87
2018-06-09T16:37:52.094Z,31.25
2018-06-09T16:40:20.719Z,31.12
2018-06-09T16:42:49.344Z,30.76
2018-06-09T16:45:17.939Z,30.61
2018-06-09T16:47:46.561Z,30.78
2018-06-09T16:50:15.178Z,30.62
2018-06-09T16:52:43.851Z,30.49
2018-06-09T16:55:12.243Z,30.38
2018-06-09T16:57:40.871Z,30.08
2018-06-09T17:00:09.534Z,30.45
2018-06-09T17:02:38.186Z,30.19
2018-06-09T17:05:06.960Z,30.07
2018-06-09T17:07:36.253Z,29.43
2018-06-09T17:10:04.988Z,28.50
2018-06-09T17:12:33.741Z,27.69
2018-06-09T17:15:02.419Z,27.12
2018-06-09T17:17:31.038Z,26.65
2018-06-09T17:19:59.649Z,26.27
2018-06-09T17:22:28.306Z,26.11
2018-06-09T17:24:56.895Z,25.91
2018-06-09T17:27:25.576Z,25.80
2018-06-09T17:29:54.211Z,25.66
2018-06-09T17:32:23.097Z,25.54
2018-06-09T17:34:51.984Z,25.48
2018-06-09T17:37:21.761Z,25.31
2018-06-09T17:39:50.703Z,25.23
2018-06-09T17:42:19.591Z,25.14
2018-06-09T17:44:48.449Z,25.03
2018-06-09T17:47:17.293Z,25.02
2018-06-09T17:49:46.303Z,24.95
2018-06-09T17:52:15.221Z,24.94
2018-06-09T17:54:44.084Z,24.86
2018-06-09T17:57:12.991Z,24.80
2018-06-09T17:59:41.841Z,24.82
2018-06-09T18:02:11.169Z,24.88
2018-06-09T18:04:39.844Z,24.64
2018-06-09T18:07:08.499Z,24.56
2018-06-09T18:09:37.801Z,24.38
2018-06-09T18:12:06.492Z,24.35
2018-06-09T18:14:35.220Z,24.39
2018-06-09T18:17:03.915Z,24.27
2018-06-09T18:19:32.660Z,24.03
2018-06-09T18:22:01.207Z,23.86
2018-06-09T18:24:29.898Z,23.72
2018-06-09T18:26:58.507Z,23.57
2018-06-09T18:29:27.160Z,23.41
2018-06-09T18:31:55.809Z,23.28
2018-06-09T18:34:24.451Z,23.18
2018-06-09T18:36:53.127Z,23.19
2018-06-09T18:39:21.804Z,23.06
2018-06-09T18:41:50.507Z,23.24
2018-06-09T18:44:19.548Z,23.28
2018-06-09T18:46:48.246Z,23.27
2018-06-09T18:49:16.863Z,23.05
2018-06-09T18:51:45.506Z,23.00
2018-06-09T18:54:14.144Z,22.99
2018-06-09T18:56:42.819Z,23.01
2018-06-09T18:59:11.494Z,22.94
2018-06-09T19:01:40.799Z,22.75
2018-06-09T19:04:10.201Z,22.43
2018-06-09T19:06:39.779Z,22.28
2018-06-09T19:09:09.264Z,22.20
2018-06-09T19:11:38.743Z,22.28
2018-06-09T19:14:07.721Z,22.03
2018-06-09T19:16:36.719Z,22.06
2018-06-09T19:19:05.739Z,21.97
2018-06-09T19:21:34.674Z,22.00
2018-06-09T19:24:03.403Z,22.08
2018-06-09T19:26:32.093Z,22.03
2018-06-09T19:29:00.711Z,22.11
2018-06-09T19:31:29.589Z,22.08
2018-06-09T19:33:58.724Z,22.04
2018-06-09T19:36:27.688Z,21.99
2018-06-09T19:38:56.602Z,21.96
2018-06-09T19:41:25.412Z,21.85
2018-06-09T19:43:54.156Z,21.88
2018-06-09T19:46:22.837Z,21.80
2018-06-09T19:48:51.500Z,21.71
2018-06-09T19:51:20.157Z,21.68
2018-06-09T19:53:48.734Z,21.48
2018-06-09T19:56:17.373Z,21.39
2018-06-09T19:58:46.050Z,21.39
2018-06-09T20:01:14.784Z,21.20
2018-06-09T20:03:43.826Z,20.99
2018-06-09T20:06:12.717Z,20.85
2018-06-09T20:08:41.656Z,20.71
2018-06-09T20:11:10.561Z,20.61
2018-06-09T20:13:39.491Z,20.59
2018-06-09T20:16:08.449Z,20.68
2018-06-09T20:18:37.391Z,20.52
2018-06-09T20:21:06.279Z,20.38
2018-06-09T20:23:35.386Z,20.29
2018-06-09T20:26:06.510Z,20.25
2018-06-09T20:28:35.529Z,20.54
2018-06-09T20:31:04.464Z,20.57
2018-06-09T20:33:33.151Z,20.58
2018-06-09T20:36:01.843Z,20.37
2018-06-09T20:38:44.566Z,20.19
2018-06-09T20:41:13.305Z,20.22
2018-06-09T20:43:43.653Z,20.27
2018-06-09T20:46:12.684Z,20.33
2018-06-09T20:48:41.676Z,20.24
2018-06-09T20:51:10.707Z,20.23
2018-06-09T20:53:39.698Z,20.20
2018-06-09T20:56:08.700Z,20.14
2018-06-09T20:58:38.572Z,19.98
2018-06-09T21:01:07.641Z,19.78
2018-06-09T21:03:36.836Z,19.71
2018-06-09T21:06:07.039Z,19.65
2018-06-09T21:08:36.000Z,19.55
2018-06-09T21:11:04.942Z,19.50
2018-06-09T21:13:33.914Z,19.60
2018-06-09T21:16:04.446Z,19.66
2018-06-09T21:18:33.479Z,19.49
2018-06-09T21:21:02.563Z,19.42
2018-06-09T21:23:31.629Z,19.61
2018-06-09T21:26:01.651Z,19.91
2018-06-09T21:28:35.164Z,20.02
2018-06-09T21:31:09.699Z,19.77
2018-06-09T21:34:00.958Z,19.35
2018-06-09T21:36:37.337Z,19.08
2018-06-09T21:39:17.574Z,18.72
2018-06-09T21:41:51.911Z,18.59
2018-06-09T21:44:26.328Z,18.57
2018-06-09T21:46:55.208Z,18.49
2018-06-09T21:49:24.139Z,18.42
2018-06-09T21:51:53.073Z,18.33
2018-06-09T21:54:22.217Z,18.35
2018-06-09T21:56:51.109Z,18.28
2018-06-09T21:59:20.014Z,18.18
2018-06-09T22:01:48.969Z,18.26
2018-06-09T22:04:17.893Z,18.25
2018-06-09T22:06:46.779Z,18.37
2018-06-09T22:09:15.496Z,18.30
2018-06-09T22:11:44.164Z,18.27
2018-06-09T22:14:12.996Z,18.32
2018-06-09T22:16:41.652Z,18.26
2018-06-09T22:19:10.591Z,18.13
2018-06-09T22:21:39.208Z,17.98
2018-06-09T22:24:08.100Z,17.82
2018-06-09T22:26:36.853Z,17.80
2018-06-09T22:29:05.666Z,17.99
2018-06-09T22:31:34.355Z,17.83
2018-06-09T22:34:03.045Z,17.67
2018-06-09T22:36:31.655Z,17.56
2018-06-09T22:39:00.236Z,17.46
2018-06-09T22:41:28.833Z,17.36
2018-06-09T22:43:57.416Z,17.30
2018-06-09T22:46:26.126Z,17.25
2018-06-09T22:48:55.060Z,17.37
2018-06-09T22:51:24.003Z,17.29
2018-06-09T22:53:52.946Z,17.24
2018-06-09T22:56:21.779Z,17.60
2018-06-09T22:58:51.492Z,17.75
2018-06-09T23:01:20.183Z,17.59
2018-06-09T23:03:48.908Z,17.38
2018-06-09T23:06:19.254Z,17.25
2018-06-09T23:08:49.434Z,17.17
2018-06-09T23:11:18.096Z,17.04
2018-06-09T23:13:46.756Z,16.93
2018-06-09T23:16:16.157Z,16.81
2018-06-09T23:18:46.699Z,16.85
2018-06-09T23:21:16.907Z,16.73
2018-06-09T23:23:45.806Z,16.60
2018-06-09T23:26:16.588Z,16.49
2018-06-09T23:28:45.959Z,16.50
2018-06-09T23:31:17.431Z,16.67
2018-06-09T23:33:47.121Z,16.66
2018-06-09T23:36:16.097Z,16.61
2018-06-09T23:38:45.656Z,16.57
2018-06-09T23:41:15.944Z,16.48
2018-06-09T23:43:44.917Z,16.37
2018-06-09T23:46:13.818Z,16.33
2018-06-09T23:48:42.631Z,16.29
2018-06-09T23:51:11.232Z,16.26
2018-06-09T23:53:39.818Z,16.22
2018-06-09T23:56:08.493Z,16.20
2018-06-09T23:58:37.193Z,16.26
